sensor_id;sensor_type;location;lat;lon;timestamp;P1;durP1;ratioP1;P2;durP2;ratioP2
2177;SDS011;1095;50.992;6.798;2023-08-30T00:01:09;25.17;;;22.42;;
2177;SDS011;1095;50.992;6.798;2023-08-30T00:03:38;25.65;;;22.73;;
2177;SDS011;1095;50.992;6.798;2023-08-30T00:06:08;26.70;;;22.42;;
2177;SDS011;1095;50.992;6.798;2023-08-30T00:08:37;25.58;;;22.98;;
2177;SDS011;1095;50.992;6.798;2023-08-30T00:11:06;28.70;;;22.38;;
2177;SDS011;1095;50.992;6.798;2023-08-30T00:13:46;25.13;;;21.90;;
2177;SDS011;1095;50.992;6.798;2023-08-30T00:16:29;25.67;;;22.98;;
2177;SDS011;1095;50.992;6.798;2023-08-30T00:18:56;26.40;;;23.17;;
2177;SDS011;1095;50.992;6.798;2023-08-30T00:21:26;27.98;;;24.20;;
2177;SDS011;1095;50.992;6.798;2023-08-30T00:23:55;30.67;;;24.48;;
2177;SDS011;1095;50.992;6.798;2023-08-30T00:26:29;27.95;;;24.75;;
2177;SDS011;1095;50.992;6.798;2023-08-30T00:29:03;30.58;;;23.30;;
2177;SDS011;1095;50.992;6.798;2023-08-30T00:31:42;28.65;;;25.30;;
2177;SDS011;1095;50.992;6.798;2023-08-30T00:34:18;25.70;;;23.02;;
2177;SDS011;1095;50.992;6.798;2023-08-30T00:36:46;29.33;;;23.55;;
2177;SDS011;1095;50.992;6.798;2023-08-30T00:39:17;27.75;;;23.58;;
2177;SDS011;1095;50.992;6.798;2023-08-30T00:41:51;25.10;;;22.40;;
2177;SDS011;1095;50.992;6.798;2023-08-30T00:44:21;24.50;;;21.80;;
2177;SDS011;1095;50.992;6.798;2023-08-30T00:46:48;25.08;;;22.48;;
2177;SDS011;1095;50.992;6.798;2023-08-30T00:52:18;24.50;;;21.80;;
2177;SDS011;1095;50.992;6.798;2023-08-30T00:55:15;24.52;;;22.02;;
2177;SDS011;1095;50.992;6.798;2023-08-30T00:58:18;23.23;;;20.83;;
2177;SDS011;1095;50.992;6.798;2023-08-30T01:08:27;24.10;;;20.15;;
2177;SDS011;1095;50.992;6.798;2023-08-30T01:20:31;21.25;;;18.55;;
2177;SDS011;1095;50.992;6.798;2023-08-30T01:23:19;24.85;;;18.92;;
2177;SDS011;1095;50.992;6.798;2023-08-30T02:43:40;23.42;;;15.30;;
2177;SDS011;1095;50.992;6.798;2023-08-30T02:49:25;18.35;;;15.93;;
2177;SDS011;1095;50.992;6.798;2023-08-30T02:51:51;20.77;;;15.52;;
2177;SDS011;1095;50.992;6.798;2023-08-30T02:54:18;16.75;;;14.88;;
2177;SDS011;1095;50.992;6.798;2023-08-30T02:56:46;23.20;;;16.98;;
2177;SDS011;1095;50.992;6.798;2023-08-30T02:59:12;21.92;;;17.30;;
2177;SDS011;1095;50.992;6.798;2023-08-30T03:01:39;19.75;;;16.60;;
2177;SDS011;1095;50.992;6.798;2023-08-30T03:04:06;21.98;;;17.30;;
2177;SDS011;1095;50.992;6.798;2023-08-30T03:06:32;23.95;;;17.30;;
2177;SDS011;1095;50.992;6.798;2023-08-30T03:09:00;20.00;;;17.90;;
2177;SDS011;1095;50.992;6.798;2023-08-30T03:11:26;20.25;;;17.27;;
2177;SDS011;1095;50.992;6.798;2023-08-30T03:13:54;19.45;;;17.35;;
2177;SDS011;1095;50.992;6.798;2023-08-30T03:16:22;20.90;;;17.65;;
2177;SDS011;1095;50.992;6.798;2023-08-30T03:18:49;20.00;;;17.90;;
2177;SDS011;1095;50.992;6.798;2023-08-30T03:21:16;18.80;;;16.80;;
2177;SDS011;1095;50.992;6.798;2023-08-30T03:23:42;23.08;;;18.15;;
2177;SDS011;1095;50.992;6.798;2023-08-30T03:26:09;20.45;;;18.23;;
2177;SDS011;1095;50.992;6.798;2023-08-30T03:28:37;22.90;;;18.38;;
2177;SDS011;1095;50.992;6.798;2023-08-30T03:31:12;20.50;;;17.95;;
2177;SDS011;1095;50.992;6.798;2023-08-30T03:33:39;22.20;;;18.63;;
2177;SDS011;1095;50.992;6.798;2023-08-30T03:36:06;22.00;;;17.65;;
2177;SDS011;1095;50.992;6.798;2023-08-30T03:38:33;20.15;;;17.77;;
2177;SDS011;1095;50.992;6.798;2023-08-30T03:41:00;23.48;;;19.23;;
2177;SDS011;1095;50.992;6.798;2023-08-30T03:43:26;22.83;;;18.92;;
2177;SDS011;1095;50.992;6.798;2023-08-30T03:45:53;24.02;;;19.10;;
2177;SDS011;1095;50.992;6.798;2023-08-30T03:48:21;21.23;;;18.33;;
2177;SDS011;1095;50.992;6.798;2023-08-30T03:50:48;21.52;;;18.25;;
2177;SDS011;1095;50.992;6.798;2023-08-30T03:53:14;21.92;;;18.63;;
2177;SDS011;1095;50.992;6.798;2023-08-30T03:55:41;21.00;;;17.70;;
2177;SDS011;1095;50.992;6.798;2023-08-30T03:58:07;23.00;;;18.50;;
2177;SDS011;1095;50.992;6.798;2023-08-30T04:00:35;22.65;;;18.27;;
2177;SDS011;1095;50.992;6.798;2023-08-30T04:03:02;22.67;;;19.65;;
2177;SDS011;1095;50.992;6.798;2023-08-30T04:05:33;23.45;;;20.20;;
2177;SDS011;1095;50.992;6.798;2023-08-30T04:08:00;22.25;;;19.50;;
2177;SDS011;1095;50.992;6.798;2023-08-30T04:10:27;22.75;;;19.25;;
2177;SDS011;1095;50.992;6.798;2023-08-30T04:12:54;26.20;;;19.73;;
2177;SDS011;1095;50.992;6.798;2023-08-30T04:15:20;25.55;;;19.65;;
2177;SDS011;1095;50.992;6.798;2023-08-30T04:17:47;25.00;;;18.80;;
2177;SDS011;1095;50.992;6.798;2023-08-30T04:20:14;23.85;;;19.20;;
2177;SDS011;1095;50.992;6.798;2023-08-30T04:22:42;28.65;;;21.00;;
2177;SDS011;1095;50.992;6.798;2023-08-30T04:25:08;22.83;;;19.60;;
2177;SDS011;1095;50.992;6.798;2023-08-30T04:27:35;23.02;;;19.20;;
2177;SDS011;1095;50.992;6.798;2023-08-30T04:30:02;24.40;;;19.88;;
2177;SDS011;1095;50.992;6.798;2023-08-30T04:32:29;22.90;;;18.85;;
2177;SDS011;1095;50.992;6.798;2023-08-30T04:34:56;21.75;;;18.20;;
2177;SDS011;1095;50.992;6.798;2023-08-30T04:37:22;20.85;;;18.10;;
2177;SDS011;1095;50.992;6.798;2023-08-30T04:39:50;20.88;;;17.70;;
2177;SDS011;1095;50.992;6.798;2023-08-30T04:42:17;21.80;;;17.90;;
2177;SDS011;1095;50.992;6.798;2023-08-30T04:44:43;20.40;;;17.45;;
2177;SDS011;1095;50.992;6.798;2023-08-30T04:47:10;21.70;;;17.13;;
2177;SDS011;1095;50.992;6.798;2023-08-30T04:49:36;25.50;;;17.80;;
2177;SDS011;1095;50.992;6.798;2023-08-30T04:52:04;19.27;;;17.20;;
2177;SDS011;1095;50.992;6.798;2023-08-30T04:54:31;20.75;;;17.33;;
2177;SDS011;1095;50.992;6.798;2023-08-30T04:56:59;18.92;;;16.75;;
2177;SDS011;1095;50.992;6.798;2023-08-30T04:59:25;20.38;;;17.23;;
2177;SDS011;1095;50.992;6.798;2023-08-30T05:01:52;19.85;;;16.83;;
2177;SDS011;1095;50.992;6.798;2023-08-30T05:04:19;20.42;;;17.33;;
2177;SDS011;1095;50.992;6.798;2023-08-30T05:06:47;20.52;;;17.80;;
2177;SDS011;1095;50.992;6.798;2023-08-30T05:09:13;20.23;;;16.55;;
2177;SDS011;1095;50.992;6.798;2023-08-30T05:11:41;21.10;;;16.83;;
2177;SDS011;1095;50.992;6.798;2023-08-30T05:14:10;20.40;;;17.58;;
2177;SDS011;1095;50.992;6.798;2023-08-30T05:16:38;23.48;;;17.58;;
2177;SDS011;1095;50.992;6.798;2023-08-30T05:19:05;20.83;;;16.90;;
2177;SDS011;1095;50.992;6.798;2023-08-30T05:21:32;19.98;;;16.73;;
2177;SDS011;1095;50.992;6.798;2023-08-30T05:23:59;21.13;;;17.30;;
2177;SDS011;1095;50.992;6.798;2023-08-30T05:26:26;19.95;;;16.70;;
2177;SDS011;1095;50.992;6.798;2023-08-30T05:28:53;19.20;;;16.73;;
2177;SDS011;1095;50.992;6.798;2023-08-30T05:31:22;20.83;;;16.88;;
2177;SDS011;1095;50.992;6.798;2023-08-30T05:33:53;20.67;;;16.02;;
2177;SDS011;1095;50.992;6.798;2023-08-30T05:36:20;25.00;;;16.30;;
2177;SDS011;1095;50.992;6.798;2023-08-30T05:38:49;17.85;;;15.95;;
2177;SDS011;1095;50.992;6.798;2023-08-30T05:41:21;17.67;;;15.35;;
2177;SDS011;1095;50.992;6.798;2023-08-30T05:43:48;20.95;;;15.40;;
2177;SDS011;1095;50.992;6.798;2023-08-30T05:46:16;17.27;;;15.48;;
2177;SDS011;1095;50.992;6.798;2023-08-30T05:48:44;16.65;;;14.63;;
2177;SDS011;1095;50.992;6.798;2023-08-30T05:51:11;18.10;;;15.07;;
2177;SDS011;1095;50.992;6.798;2023-08-30T05:53:38;19.48;;;15.57;;
2177;SDS011;1095;50.992;6.798;2023-08-30T05:56:04;19.00;;;15.38;;
2177;SDS011;1095;50.992;6.798;2023-08-30T05:58:32;17.55;;;15.35;;
2177;SDS011;1095;50.992;6.798;2023-08-30T06:01:00;20.90;;;15.70;;
2177;SDS011;1095;50.992;6.798;2023-08-30T06:03:28;17.10;;;14.20;;
2177;SDS011;1095;50.992;6.798;2023-08-30T06:05:56;15.75;;;13.77;;
2177;SDS011;1095;50.992;6.798;2023-08-30T06:08:23;15.07;;;12.57;;
2177;SDS011;1095;50.992;6.798;2023-08-30T06:10:50;17.33;;;12.13;;
2177;SDS011;1095;50.992;6.798;2023-08-30T06:13:17;19.13;;;12.13;;
2177;SDS011;1095;50.992;6.798;2023-08-30T06:15:44;14.05;;;11.88;;
2177;SDS011;1095;50.992;6.798;2023-08-30T06:18:11;12.27;;;10.48;;
2177;SDS011;1095;50.992;6.798;2023-08-30T06:20:39;15.45;;;11.10;;
2177;SDS011;1095;50.992;6.798;2023-08-30T06:23:08;13.77;;;10.32;;
2177;SDS011;1095;50.992;6.798;2023-08-30T06:25:35;13.63;;;10.25;;
2177;SDS011;1095;50.992;6.798;2023-08-30T06:28:02;12.10;;;10.38;;
2177;SDS011;1095;50.992;6.798;2023-08-30T06:30:29;13.48;;;10.25;;
2177;SDS011;1095;50.992;6.798;2023-08-30T06:32:56;15.23;;;10.40;;
2177;SDS011;1095;50.992;6.798;2023-08-30T06:35:23;13.40;;;10.32;;
2177;SDS011;1095;50.992;6.798;2023-08-30T06:37:50;14.00;;;10.95;;
2177;SDS011;1095;50.992;6.798;2023-08-30T06:40:18;12.93;;;10.77;;
2177;SDS011;1095;50.992;6.798;2023-08-30T06:42:45;17.20;;;11.10;;
2177;SDS011;1095;50.992;6.798;2023-08-30T06:45:11;15.52;;;10.32;;
2177;SDS011;1095;50.992;6.798;2023-08-30T06:47:38;11.32;;;9.90;;
2177;SDS011;1095;50.992;6.798;2023-08-30T06:50:05;10.60;;;9.48;;
2177;SDS011;1095;50.992;6.798;2023-08-30T06:52:34;14.32;;;10.77;;
2177;SDS011;1095;50.992;6.798;2023-08-30T06:55:01;12.32;;;10.70;;
2177;SDS011;1095;50.992;6.798;2023-08-30T06:57:29;12.98;;;11.50;;
2177;SDS011;1095;50.992;6.798;2023-08-30T06:59:56;16.80;;;11.32;;
2177;SDS011;1095;50.992;6.798;2023-08-30T07:02:24;20.15;;;10.70;;
2177;SDS011;1095;50.992;6.798;2023-08-30T07:04:52;16.33;;;11.00;;
2177;SDS011;1095;50.992;6.798;2023-08-30T07:07:19;13.75;;;9.57;;
2177;SDS011;1095;50.992;6.798;2023-08-30T07:09:46;10.65;;;9.20;;
2177;SDS011;1095;50.992;6.798;2023-08-30T07:12:13;13.60;;;9.18;;
2177;SDS011;1095;50.992;6.798;2023-08-30T07:14:41;12.77;;;9.25;;
2177;SDS011;1095;50.992;6.798;2023-08-30T07:17:08;12.32;;;8.93;;
2177;SDS011;1095;50.992;6.798;2023-08-30T07:19:35;11.65;;;9.18;;
2177;SDS011;1095;50.992;6.798;2023-08-30T07:22:01;12.80;;;9.25;;
2177;SDS011;1095;50.992;6.798;2023-08-30T07:24:29;17.58;;;10.02;;
2177;SDS011;1095;50.992;6.798;2023-08-30T07:26:56;14.20;;;9.25;;
2177;SDS011;1095;50.992;6.798;2023-08-30T07:29:23;12.20;;;9.27;;
2177;SDS011;1095;50.992;6.798;2023-08-30T07:31:51;14.60;;;8.93;;
2177;SDS011;1095;50.992;6.798;2023-08-30T07:34:18;11.63;;;8.32;;
2177;SDS011;1095;50.992;6.798;2023-08-30T07:36:45;9.90;;;8.10;;
2177;SDS011;1095;50.992;6.798;2023-08-30T07:39:12;14.30;;;7.88;;
2177;SDS011;1095;50.992;6.798;2023-08-30T07:41:39;14.13;;;7.63;;
2177;SDS011;1095;50.992;6.798;2023-08-30T07:44:06;11.52;;;7.30;;
2177;SDS011;1095;50.992;6.798;2023-08-30T07:46:34;13.60;;;7.25;;
2177;SDS011;1095;50.992;6.798;2023-08-30T07:49:02;8.88;;;7.18;;
2177;SDS011;1095;50.992;6.798;2023-08-30T07:51:29;9.40;;;6.95;;
2177;SDS011;1095;50.992;6.798;2023-08-30T07:53:59;10.50;;;6.45;;
2177;SDS011;1095;50.992;6.798;2023-08-30T07:56:44;24.55;;;7.75;;
2177;SDS011;1095;50.992;6.798;2023-08-30T08:02:52;12.52;;;6.60;;
2177;SDS011;1095;50.992;6.798;2023-08-30T08:05:30;9.65;;;6.15;;
2177;SDS011;1095;50.992;6.798;2023-08-30T08:08:16;9.18;;;6.38;;
2177;SDS011;1095;50.992;6.798;2023-08-30T08:10:51;7.22;;;6.15;;
2177;SDS011;1095;50.992;6.798;2023-08-30T08:23:08;17.73;;;7.95;;
2177;SDS011;1095;50.992;6.798;2023-08-30T08:25:56;7.95;;;6.68;;
2177;SDS011;1095;50.992;6.798;2023-08-30T08:32:10;11.90;;;6.65;;
2177;SDS011;1095;50.992;6.798;2023-08-30T08:35:03;9.48;;;6.15;;
2177;SDS011;1095;50.992;6.798;2023-08-30T08:38:08;10.05;;;5.90;;
2177;SDS011;1095;50.992;6.798;2023-08-30T08:41:01;9.10;;;5.75;;
2177;SDS011;1095;50.992;6.798;2023-08-30T08:43:45;11.23;;;5.72;;
2177;SDS011;1095;50.992;6.798;2023-08-30T09:30:24;7.78;;;4.68;;
2177;SDS011;1095;50.992;6.798;2023-08-30T09:33:00;8.10;;;4.70;;
2177;SDS011;1095;50.992;6.798;2023-08-30T09:35:28;11.27;;;5.00;;
2177;SDS011;1095;50.992;6.798;2023-08-30T09:37:55;9.98;;;5.05;;
2177;SDS011;1095;50.992;6.798;2023-08-30T09:40:22;12.88;;;4.95;;
2177;SDS011;1095;50.992;6.798;2023-08-30T09:42:48;7.32;;;4.80;;
2177;SDS011;1095;50.992;6.798;2023-08-30T09:45:18;6.65;;;4.97;;
2177;SDS011;1095;50.992;6.798;2023-08-30T09:47:48;6.50;;;5.13;;
2177;SDS011;1095;50.992;6.798;2023-08-30T09:50:15;10.77;;;5.40;;
2177;SDS011;1095;50.992;6.798;2023-08-30T09:52:44;9.60;;;5.35;;
2177;SDS011;1095;50.992;6.798;2023-08-30T09:55:12;7.55;;;5.10;;
2177;SDS011;1095;50.992;6.798;2023-08-30T09:57:42;10.13;;;5.72;;
2177;SDS011;1095;50.992;6.798;2023-08-30T10:00:09;10.68;;;6.65;;
2177;SDS011;1095;50.992;6.798;2023-08-30T10:02:37;10.90;;;5.80;;
2177;SDS011;1095;50.992;6.798;2023-08-30T10:05:08;11.07;;;5.63;;
2177;SDS011;1095;50.992;6.798;2023-08-30T10:07:35;10.23;;;5.40;;
2177;SDS011;1095;50.992;6.798;2023-08-30T10:10:02;13.77;;;6.50;;
2177;SDS011;1095;50.992;6.798;2023-08-30T10:12:31;9.18;;;5.57;;
2177;SDS011;1095;50.992;6.798;2023-08-30T10:14:58;8.50;;;5.43;;
2177;SDS011;1095;50.992;6.798;2023-08-30T10:17:26;10.73;;;5.18;;
2177;SDS011;1095;50.992;6.798;2023-08-30T10:19:54;10.15;;;5.60;;
2177;SDS011;1095;50.992;6.798;2023-08-30T10:22:23;6.82;;;5.15;;
2177;SDS011;1095;50.992;6.798;2023-08-30T10:24:52;7.97;;;5.40;;
2177;SDS011;1095;50.992;6.798;2023-08-30T10:27:22;8.35;;;5.60;;
2177;SDS011;1095;50.992;6.798;2023-08-30T10:29:56;9.68;;;5.28;;
2177;SDS011;1095;50.992;6.798;2023-08-30T10:32:26;7.32;;;5.28;;
2177;SDS011;1095;50.992;6.798;2023-08-30T10:34:53;8.60;;;5.28;;
2177;SDS011;1095;50.992;6.798;2023-08-30T10:37:22;9.13;;;5.55;;
2177;SDS011;1095;50.992;6.798;2023-08-30T10:39:52;13.40;;;5.38;;
2177;SDS011;1095;50.992;6.798;2023-08-30T10:42:21;9.18;;;5.65;;
2177;SDS011;1095;50.992;6.798;2023-08-30T10:44:49;8.95;;;5.53;;
2177;SDS011;1095;50.992;6.798;2023-08-30T10:47:19;11.73;;;5.35;;
2177;SDS011;1095;50.992;6.798;2023-08-30T10:49:46;9.85;;;5.40;;
2177;SDS011;1095;50.992;6.798;2023-08-30T10:52:14;10.02;;;5.68;;
2177;SDS011;1095;50.992;6.798;2023-08-30T10:54:42;8.90;;;5.25;;
2177;SDS011;1095;50.992;6.798;2023-08-30T10:57:18;8.65;;;6.15;;
2177;SDS011;1095;50.992;6.798;2023-08-30T11:00:05;10.57;;;6.75;;
2177;SDS011;1095;50.992;6.798;2023-08-30T11:02:33;9.35;;;6.75;;
2177;SDS011;1095;50.992;6.798;2023-08-30T11:05:01;13.68;;;7.30;;
2177;SDS011;1095;50.992;6.798;2023-08-30T11:07:28;9.70;;;6.45;;
2177;SDS011;1095;50.992;6.798;2023-08-30T11:09:57;8.57;;;6.03;;
2177;SDS011;1095;50.992;6.798;2023-08-30T11:12:24;7.25;;;5.25;;
2177;SDS011;1095;50.992;6.798;2023-08-30T11:14:52;6.72;;;4.47;;
2177;SDS011;1095;50.992;6.798;2023-08-30T11:17:28;6.65;;;4.88;;
2177;SDS011;1095;50.992;6.798;2023-08-30T11:20:12;7.72;;;5.00;;
2177;SDS011;1095;50.992;6.798;2023-08-30T11:50:02;8.90;;;5.10;;
2177;SDS011;1095;50.992;6.798;2023-08-30T11:52:31;8.23;;;5.00;;
2177;SDS011;1095;50.992;6.798;2023-08-30T11:55:05;6.40;;;4.82;;
2177;SDS011;1095;50.992;6.798;2023-08-30T11:57:37;6.15;;;5.13;;
2177;SDS011;1095;50.992;6.798;2023-08-30T12:00:08;8.23;;;4.80;;
2177;SDS011;1095;50.992;6.798;2023-08-30T12:02:35;7.32;;;4.88;;
2177;SDS011;1095;50.992;6.798;2023-08-30T12:05:04;5.70;;;4.90;;
2177;SDS011;1095;50.992;6.798;2023-08-30T12:07:31;6.50;;;4.78;;
2177;SDS011;1095;50.992;6.798;2023-08-30T12:10:03;6.80;;;4.60;;
2177;SDS011;1095;50.992;6.798;2023-08-30T12:12:30;6.32;;;5.38;;
2177;SDS011;1095;50.992;6.798;2023-08-30T12:14:57;7.03;;;5.18;;
2177;SDS011;1095;50.992;6.798;2023-08-30T12:17:24;6.82;;;4.97;;
2177;SDS011;1095;50.992;6.798;2023-08-30T12:19:55;6.50;;;5.05;;
2177;SDS011;1095;50.992;6.798;2023-08-30T12:22:23;5.43;;;4.80;;
2177;SDS011;1095;50.992;6.798;2023-08-30T12:24:50;8.18;;;5.45;;
2177;SDS011;1095;50.992;6.798;2023-08-30T12:27:16;6.32;;;5.38;;
2177;SDS011;1095;50.992;6.798;2023-08-30T12:29:43;6.53;;;5.47;;
2177;SDS011;1095;50.992;6.798;2023-08-30T12:32:09;6.18;;;5.32;;
2177;SDS011;1095;50.992;6.798;2023-08-30T12:34:36;5.65;;;5.05;;
2177;SDS011;1095;50.992;6.798;2023-08-30T12:37:04;7.55;;;5.22;;
2177;SDS011;1095;50.992;6.798;2023-08-30T12:39:31;5.65;;;4.63;;
2177;SDS011;1095;50.992;6.798;2023-08-30T12:41:58;5.35;;;4.57;;
2177;SDS011;1095;50.992;6.798;2023-08-30T12:44:25;4.78;;;4.10;;
2177;SDS011;1095;50.992;6.798;2023-08-30T12:46:52;4.90;;;4.13;;
2177;SDS011;1095;50.992;6.798;2023-08-30T12:49:18;6.97;;;5.10;;
2177;SDS011;1095;50.992;6.798;2023-08-30T12:51:46;5.70;;;4.70;;
2177;SDS011;1095;50.992;6.798;2023-08-30T12:54:12;6.93;;;4.68;;
2177;SDS011;1095;50.992;6.798;2023-08-30T12:56:43;4.80;;;4.28;;
2177;SDS011;1095;50.992;6.798;2023-08-30T12:59:10;6.57;;;5.10;;
2177;SDS011;1095;50.992;6.798;2023-08-30T13:01:36;5.45;;;4.90;;
2177;SDS011;1095;50.992;6.798;2023-08-30T13:04:03;7.85;;;5.13;;
2177;SDS011;1095;50.992;6.798;2023-08-30T13:06:30;5.85;;;4.95;;
2177;SDS011;1095;50.992;6.798;2023-08-30T13:08:57;7.45;;;4.88;;
2177;SDS011;1095;50.992;6.798;2023-08-30T13:11:23;6.10;;;5.50;;
2177;SDS011;1095;50.992;6.798;2023-08-30T13:13:52;7.38;;;5.28;;
2177;SDS011;1095;50.992;6.798;2023-08-30T13:16:19;7.70;;;5.38;;
2177;SDS011;1095;50.992;6.798;2023-08-30T13:18:46;7.30;;;5.15;;
2177;SDS011;1095;50.992;6.798;2023-08-30T13:21:13;5.82;;;5.05;;
2177;SDS011;1095;50.992;6.798;2023-08-30T13:23:39;7.70;;;4.72;;
2177;SDS011;1095;50.992;6.798;2023-08-30T13:26:06;5.90;;;4.75;;
2177;SDS011;1095;50.992;6.798;2023-08-30T13:28:33;6.78;;;5.30;;
2177;SDS011;1095;50.992;6.798;2023-08-30T13:31:01;6.30;;;5.10;;
2177;SDS011;1095;50.992;6.798;2023-08-30T13:33:28;5.80;;;4.70;;
2177;SDS011;1095;50.992;6.798;2023-08-30T13:35:54;6.82;;;4.78;;
2177;SDS011;1095;50.992;6.798;2023-08-30T13:38:21;6.78;;;4.60;;
2177;SDS011;1095;50.992;6.798;2023-08-30T13:40:48;5.40;;;4.60;;
2177;SDS011;1095;50.992;6.798;2023-08-30T13:43:14;6.05;;;4.70;;
2177;SDS011;1095;50.992;6.798;2023-08-30T13:45:41;6.10;;;5.18;;
2177;SDS011;1095;50.992;6.798;2023-08-30T13:48:13;5.80;;;4.90;;
2177;SDS011;1095;50.992;6.798;2023-08-30T13:50:40;6.22;;;4.65;;
2177;SDS011;1095;50.992;6.798;2023-08-30T13:53:07;8.07;;;4.80;;
2177;SDS011;1095;50.992;6.798;2023-08-30T13:55:34;5.47;;;4.72;;
2177;SDS011;1095;50.992;6.798;2023-08-30T13:58:01;9.55;;;4.65;;
2177;SDS011;1095;50.992;6.798;2023-08-30T14:00:27;5.95;;;4.40;;
2177;SDS011;1095;50.992;6.798;2023-08-30T14:02:54;5.40;;;4.35;;
2177;SDS011;1095;50.992;6.798;2023-08-30T14:05:22;5.85;;;4.38;;
2177;SDS011;1095;50.992;6.798;2023-08-30T14:07:48;5.47;;;4.72;;
2177;SDS011;1095;50.992;6.798;2023-08-30T14:10:16;6.03;;;4.93;;
2177;SDS011;1095;50.992;6.798;2023-08-30T14:12:43;6.57;;;5.00;;
2177;SDS011;1095;50.992;6.798;2023-08-30T14:15:10;8.43;;;6.35;;
2177;SDS011;1095;50.992;6.798;2023-08-30T14:17:37;8.10;;;5.50;;
2177;SDS011;1095;50.992;6.798;2023-08-30T14:20:04;7.53;;;5.72;;
2177;SDS011;1095;50.992;6.798;2023-08-30T14:22:33;7.28;;;5.65;;
2177;SDS011;1095;50.992;6.798;2023-08-30T14:25:01;8.48;;;5.82;;
2177;SDS011;1095;50.992;6.798;2023-08-30T14:27:29;6.82;;;6.03;;
2177;SDS011;1095;50.992;6.798;2023-08-30T14:29:56;8.40;;;6.28;;
2177;SDS011;1095;50.992;6.798;2023-08-30T14:32:22;9.52;;;6.30;;
2177;SDS011;1095;50.992;6.798;2023-08-30T14:34:49;8.25;;;5.68;;
2177;SDS011;1095;50.992;6.798;2023-08-30T14:37:16;6.78;;;5.53;;
2177;SDS011;1095;50.992;6.798;2023-08-30T14:39:44;7.40;;;5.40;;
2177;SDS011;1095;50.992;6.798;2023-08-30T14:42:10;5.88;;;5.15;;
2177;SDS011;1095;50.992;6.798;2023-08-30T14:44:37;6.88;;;5.95;;
2177;SDS011;1095;50.992;6.798;2023-08-30T14:47:03;7.65;;;5.70;;
2177;SDS011;1095;50.992;6.798;2023-08-30T14:49:30;7.78;;;5.60;;
2177;SDS011;1095;50.992;6.798;2023-08-30T14:51:57;7.35;;;5.72;;
2177;SDS011;1095;50.992;6.798;2023-08-30T14:54:23;8.55;;;6.47;;
2177;SDS011;1095;50.992;6.798;2023-08-30T14:56:51;8.40;;;6.28;;
2177;SDS011;1095;50.992;6.798;2023-08-30T14:59:18;7.70;;;5.88;;
2177;SDS011;1095;50.992;6.798;2023-08-30T15:01:45;7.75;;;6.00;;
2177;SDS011;1095;50.992;6.798;2023-08-30T15:04:11;7.75;;;6.10;;
2177;SDS011;1095;50.992;6.798;2023-08-30T15:06:38;7.15;;;5.75;;
2177;SDS011;1095;50.992;6.798;2023-08-30T15:09:05;6.45;;;5.50;;
2177;SDS011;1095;50.992;6.798;2023-08-30T15:11:32;7.57;;;5.47;;
2177;SDS011;1095;50.992;6.798;2023-08-30T15:14:00;7.60;;;5.50;;
2177;SDS011;1095;50.992;6.798;2023-08-30T15:16:26;6.53;;;5.30;;
2177;SDS011;1095;50.992;6.798;2023-08-30T15:18:53;9.38;;;5.40;;
2177;SDS011;1095;50.992;6.798;2023-08-30T15:21:19;7.70;;;5.32;;
2177;SDS011;1095;50.992;6.798;2023-08-30T15:23:46;7.13;;;5.68;;
2177;SDS011;1095;50.992;6.798;2023-08-30T15:26:13;7.47;;;5.68;;
2177;SDS011;1095;50.992;6.798;2023-08-30T15:28:42;9.30;;;6.10;;
2177;SDS011;1095;50.992;6.798;2023-08-30T15:31:11;8.38;;;7.03;;
2177;SDS011;1095;50.992;6.798;2023-08-30T15:33:37;8.60;;;6.05;;
2177;SDS011;1095;50.992;6.798;2023-08-30T15:36:04;8.88;;;6.60;;
2177;SDS011;1095;50.992;6.798;2023-08-30T15:38:31;7.88;;;6.82;;
2177;SDS011;1095;50.992;6.798;2023-08-30T15:40:59;6.93;;;6.22;;
2177;SDS011;1095;50.992;6.798;2023-08-30T15:43:25;7.30;;;5.80;;
2177;SDS011;1095;50.992;6.798;2023-08-30T15:45:52;6.95;;;6.05;;
2177;SDS011;1095;50.992;6.798;2023-08-30T15:48:20;9.88;;;6.10;;
2177;SDS011;1095;50.992;6.798;2023-08-30T15:50:47;8.50;;;6.43;;
2177;SDS011;1095;50.992;6.798;2023-08-30T15:53:14;8.75;;;7.00;;
2177;SDS011;1095;50.992;6.798;2023-08-30T15:55:41;8.30;;;7.43;;
2177;SDS011;1095;50.992;6.798;2023-08-30T15:58:08;8.68;;;7.40;;
2177;SDS011;1095;50.992;6.798;2023-08-30T16:00:34;9.68;;;7.25;;
2177;SDS011;1095;50.992;6.798;2023-08-30T16:03:05;7.97;;;7.05;;
2177;SDS011;1095;50.992;6.798;2023-08-30T16:05:34;10.50;;;7.22;;
2177;SDS011;1095;50.992;6.798;2023-08-30T16:08:01;9.57;;;6.97;;
2177;SDS011;1095;50.992;6.798;2023-08-30T16:10:28;8.57;;;6.70;;
2177;SDS011;1095;50.992;6.798;2023-08-30T16:12:55;8.38;;;7.18;;
2177;SDS011;1095;50.992;6.798;2023-08-30T16:15:22;10.70;;;7.55;;
2177;SDS011;1095;50.992;6.798;2023-08-30T16:17:48;9.20;;;7.63;;
2177;SDS011;1095;50.992;6.798;2023-08-30T16:20:15;9.80;;;7.43;;
2177;SDS011;1095;50.992;6.798;2023-08-30T16:22:43;12.43;;;7.15;;
2177;SDS011;1095;50.992;6.798;2023-08-30T16:25:10;10.55;;;7.13;;
2177;SDS011;1095;50.992;6.798;2023-08-30T16:27:37;12.10;;;7.47;;
2177;SDS011;1095;50.992;6.798;2023-08-30T16:30:04;7.60;;;6.75;;
2177;SDS011;1095;50.992;6.798;2023-08-30T16:32:31;9.50;;;6.65;;
2177;SDS011;1095;50.992;6.798;2023-08-30T16:34:58;11.13;;;7.00;;
2177;SDS011;1095;50.992;6.798;2023-08-30T16:37:24;11.52;;;7.28;;
2177;SDS011;1095;50.992;6.798;2023-08-30T16:39:52;14.00;;;6.95;;
2177;SDS011;1095;50.992;6.798;2023-08-30T16:42:22;9.98;;;6.72;;
2177;SDS011;1095;50.992;6.798;2023-08-30T16:44:49;10.52;;;7.13;;
2177;SDS011;1095;50.992;6.798;2023-08-30T16:47:18;10.88;;;7.40;;
2177;SDS011;1095;50.992;6.798;2023-08-30T16:49:45;9.57;;;6.57;;
2177;SDS011;1095;50.992;6.798;2023-08-30T16:52:11;11.73;;;7.20;;
2177;SDS011;1095;50.992;6.798;2023-08-30T16:54:38;9.38;;;6.60;;
2177;SDS011;1095;50.992;6.798;2023-08-30T16:57:06;11.88;;;7.07;;
2177;SDS011;1095;50.992;6.798;2023-08-30T16:59:33;11.68;;;7.65;;
2177;SDS011;1095;50.992;6.798;2023-08-30T17:01:59;11.35;;;7.80;;
2177;SDS011;1095;50.992;6.798;2023-08-30T17:04:35;10.38;;;7.75;;
2177;SDS011;1095;50.992;6.798;2023-08-30T17:07:02;11.98;;;7.80;;
2177;SDS011;1095;50.992;6.798;2023-08-30T17:09:32;10.80;;;7.47;;
2177;SDS011;1095;50.992;6.798;2023-08-30T17:15:41;8.95;;;7.30;;
2177;SDS011;1095;50.992;6.798;2023-08-30T17:18:10;14.48;;;7.72;;
2177;SDS011;1095;50.992;6.798;2023-08-30T17:20:37;10.23;;;6.72;;
2177;SDS011;1095;50.992;6.798;2023-08-30T17:23:04;10.05;;;7.90;;
2177;SDS011;1095;50.992;6.798;2023-08-30T17:25:55;11.00;;;7.68;;
2177;SDS011;1095;50.992;6.798;2023-08-30T17:29:00;11.07;;;6.85;;
2177;SDS011;1095;50.992;6.798;2023-08-30T17:38:15;12.00;;;7.10;;
2177;SDS011;1095;50.992;6.798;2023-08-30T17:48:21;10.85;;;6.68;;
2177;SDS011;1095;50.992;6.798;2023-08-30T17:50:51;10.32;;;6.57;;
2177;SDS011;1095;50.992;6.798;2023-08-30T17:53:19;13.55;;;7.07;;
2177;SDS011;1095;50.992;6.798;2023-08-30T17:55:55;12.75;;;6.97;;
2177;SDS011;1095;50.992;6.798;2023-08-30T17:58:27;13.02;;;7.28;;
2177;SDS011;1095;50.992;6.798;2023-08-30T18:00:57;10.93;;;6.97;;
2177;SDS011;1095;50.992;6.798;2023-08-30T18:03:24;10.93;;;6.30;;
2177;SDS011;1095;50.992;6.798;2023-08-30T18:06:03;11.43;;;5.90;;
2177;SDS011;1095;50.992;6.798;2023-08-30T18:08:42;9.25;;;5.38;;
2177;SDS011;1095;50.992;6.798;2023-08-30T18:11:23;8.73;;;5.03;;
2177;SDS011;1095;50.992;6.798;2023-08-30T18:13:54;11.07;;;4.75;;
2177;SDS011;1095;50.992;6.798;2023-08-30T18:16:28;13.32;;;4.63;;
2177;SDS011;1095;50.992;6.798;2023-08-30T18:18:58;9.32;;;4.38;;
2177;SDS011;1095;50.992;6.798;2023-08-30T18:21:28;10.07;;;4.70;;
2177;SDS011;1095;50.992;6.798;2023-08-30T18:24:16;9.48;;;5.03;;
2177;SDS011;1095;50.992;6.798;2023-08-30T18:26:44;10.90;;;4.65;;
2177;SDS011;1095;50.992;6.798;2023-08-30T18:29:23;13.98;;;6.28;;
2177;SDS011;1095;50.992;6.798;2023-08-30T18:32:12;11.40;;;4.45;;
2177;SDS011;1095;50.992;6.798;2023-08-30T18:34:38;9.30;;;4.60;;
2177;SDS011;1095;50.992;6.798;2023-08-30T18:37:05;10.02;;;4.63;;
2177;SDS011;1095;50.992;6.798;2023-08-30T18:39:34;9.43;;;4.63;;
2177;SDS011;1095;50.992;6.798;2023-08-30T18:42:01;8.88;;;4.47;;